Mocoreta, Argentina
Current Conditions -  °F | °C
As of 5:00 PM on Monday 24 Nov 2014 (Local Time) from SUSO Reporting Station
Thunderstorm Thunderstorm  
Wind Chill: 84°   Ceiling: 2000
Heat Index: 88°   Visibility: 6mi
Dew Point: 70°   Wind: 7mph
Humidity: 62%   Direction: 120°ESE
Pressure: 29.68"   Gusts: NA
Location:  30.63°S, 57.97°W
Report Text: SUSO 242000Z 12006KT 9000 -TSRA BKN020 FEW047CB BKN067 29/21 Q1005
Loading
Personal Weather Stations






























Interactive Weather Map New forecast layout! Learn more

10-Day Weather Forecast

Advertisements
Track Severe Weather on mobile